MSC Orchestra — 3EJF3 — position and weather

sailwx.info

Track history (hours):
 
Tides and Currents Weather Stations Pressure Air Temp Water Temp Dewpoint Dewpoint Depression Visibility Wind Speed Wind Dir Waves Ship Positions

MSC Orchestra

Last reported at 2017-Dec-09 19:26 UTC. Time now 2017-Dec-11 13:30 UTC.
Position N 40°57' E 002°03'.

Length 294 m; draft 7.8 m.

Type: Ship. MMSI: 372497000.

Date/timePositionNaut miles runAvg speedWind from/ knotsBaromVisibWave heightAir tempDewpointWater temp
2017-Dec-09 19:26N 40°57' E 002°03'612.8
2017-Dec-09 18:58N 41°01' E 002°09'1111.9
2017-Dec-09 18:04N 41°12' E 002°11'112.6
2017-Dec-09 18:00N 41°13' E 002°11'6 0.5
2017-Dec-09 07:09N 41°19' E 002°10'1 1.6
2017-Dec-09 06:40N 41°18' E 002°11'15113.8
2017-Dec-08 19:44N 43°08' E 004°30'416.0
2017-Dec-08 19:30N 43°08' E 004°35'816.3
2017-Dec-08 19:01N 43°09' E 004°46'816.0
2017-Dec-08 18:31N 43°10' E 004°57'815.7
2017-Dec-08 17:59N 43°14' E 005°07'816.7
2017-Dec-08 17:31N 43°19' E 005°15'4 0.3
2017-Dec-08 06:27N 43°21' E 005°20'1 2.9
2017-Dec-08 06:00N 43°21' E 005°18'510.0
2017-Dec-08 05:30N 43°16' E 005°16'7713.4
2017-Dec-07 23:44N 43°06' E 007°01'416.6
2017-Dec-07 23:30N 43°08' E 007°05'816.2
2017-Dec-07 23:00N 43°12' E 007°15'916.5
2017-Dec-07 22:29N 43°17' E 007°25'817.0
2017-Dec-07 22:00N 43°22' E 007°34'3516.8
2017-Dec-07 19:57N 43°41' E 008°13'715.8
2017-Dec-07 19:30N 43°46' E 008°21'816.5
2017-Dec-07 19:00N 43°52' E 008°28'816.3
2017-Dec-07 18:30N 43°58' E 008°35'815.9
2017-Dec-07 18:01N 44°05' E 008°42'815.8
2017-Dec-07 17:31N 44°11' E 008°49'815.8
2017-Dec-07 17:00N 44°17' E 008°55'713.2
2017-Dec-07 16:31N 44°24' E 008°56'1 2.4
2017-Dec-07 16:00N 44°25' E 008°55'0 0.0
2017-Dec-07 15:30N 44°25' E 008°55'0 0.0
2017-Dec-07 15:00N 44°25' E 008°55'0 0.0
2017-Dec-07 14:29N 44°25' E 008°55'0 0.0
2017-Dec-07 13:59N 44°25' E 008°55'0 0.0
2017-Dec-07 13:29N 44°25' E 008°55'0 0.0
2017-Dec-07 12:59N 44°25' E 008°55'0 0.0
2017-Dec-07 12:29N 44°25' E 008°55'0 0.0
2017-Dec-07 11:58N 44°25' E 008°55'0 0.0
2017-Dec-07 11:28N 44°25' E 008°55'0 0.0
2017-Dec-07 10:58N 44°25' E 008°55'0 0.0
2017-Dec-07 10:22N 44°25' E 008°55'0 0.0
2017-Dec-07 10:00N 44°25' E 008°55'0 0.0
2017-Dec-07 09:30N 44°25' E 008°55'0 0.0
2017-Dec-07 08:57N 44°25' E 008°55'0 0.0
2017-Dec-07 08:27N 44°25' E 008°55'0 0.0
2017-Dec-07 08:00N 44°25' E 008°55'0 0.0
2017-Dec-07 07:29N 44°25' E 008°55'0 0.0
2017-Dec-07 06:59N 44°25' E 008°55'0 0.5
2017-Dec-07 06:30N 44°24' E 008°55'2 4.2
2017-Dec-07 06:00N 44°23' E 008°57'815.6
2017-Dec-07 05:30N 44°16' E 009°02'918.0
2017-Dec-07 05:01N 44°08' E 009°08'917.9
2017-Dec-07 04:31N 44°01' E 009°15'917.8
2017-Dec-07 04:01N 43°53' E 009°21'917.7
2017-Dec-07 03:31N 43°45' E 009°27'917.7
2017-Dec-07 03:01N 43°38' E 009°33'917.7
2017-Dec-07 02:31N 43°30' E 009°40'917.5
2017-Dec-07 02:01N 43°23' E 009°46'917.4
2017-Dec-07 01:31N 43°15' E 009°52'917.2
2017-Dec-07 01:01N 43°07' E 009°57'917.3
2017-Dec-07 00:31N 42°59' E 010°00'2016.5
2017-Dec-06 23:16N 42°39' E 010°09'517.7
2017-Dec-06 22:58N 42°36' E 010°14'1117.8
2017-Dec-06 22:20N 42°29' E 010°26'718.0
2017-Dec-06 21:56N 42°25' E 010°34'  
2017-Dec-04 06:02N 36°03' W 005°13'222.3
2017-Dec-04 05:56N 36°02' W 005°15'922.1
2017-Dec-04 05:30N 35°59' W 005°26'  
2017-Dec-01 20:23N 28°59' W 015°21'615.4
2017-Dec-01 20:00N 28°56' W 015°26'815.4
2017-Dec-01 19:30N 28°51' W 015°33'815.7
2017-Dec-01 19:00N 28°46' W 015°40'815.8
2017-Dec-01 18:30N 28°41' W 015°47'815.8
2017-Dec-01 18:00N 28°37' W 015°54'815.4
2017-Dec-01 17:30N 28°32' W 016°01'815.0
2017-Dec-01 17:00N 28°28' W 016°09'510.0
2017-Dec-01 16:29N 28°29' W 016°14'0 0.0
2017-Dec-01 09:13N 28°29' W 016°15'1 1.9
2017-Dec-01 08:55N 28°29' W 016°14'1 3.3
2017-Dec-01 08:29N 28°28' W 016°13'2 4.4
2017-Dec-01 08:00N 28°28' W 016°10'510.4
2017-Dec-01 07:30N 28°32' W 016°06'1016.2
2017-Dec-01 06:54N 28°41' W 016°06'616.3
2017-Dec-01 06:30N 28°48' W 016°07'  
Track history (hours):
 
Tides and Currents Weather Stations Pressure Air Temp Water Temp Dewpoint Dewpoint Depression Visibility Wind Speed Wind Dir Waves Ship Positions

MSC Orchestra

Last reported at 2017-Dec-09 19:26 UTC. Time now 2017-Dec-11 13:30 UTC.
Position N 40°57' E 002°03'.

Length 294 m; draft 7.8 m.

Type: Ship. MMSI: 372497000.

Date/timePositionNaut miles runAvg speedWind from/ knotsBaromVisibWave heightAir tempDewpointWater temp
2017-Dec-09 19:26N 40°57' E 002°03'612.8
2017-Dec-09 18:58N 41°01' E 002°09'1111.9
2017-Dec-09 18:04N 41°12' E 002°11'112.6
2017-Dec-09 18:00N 41°13' E 002°11'6 0.5
2017-Dec-09 07:09N 41°19' E 002°10'1 1.6
2017-Dec-09 06:40N 41°18' E 002°11'15113.8
2017-Dec-08 19:44N 43°08' E 004°30'416.0
2017-Dec-08 19:30N 43°08' E 004°35'816.3
2017-Dec-08 19:01N 43°09' E 004°46'816.0
2017-Dec-08 18:31N 43°10' E 004°57'815.7
2017-Dec-08 17:59N 43°14' E 005°07'816.7
2017-Dec-08 17:31N 43°19' E 005°15'4 0.3
2017-Dec-08 06:27N 43°21' E 005°20'1 2.9
2017-Dec-08 06:00N 43°21' E 005°18'510.0
2017-Dec-08 05:30N 43°16' E 005°16'7713.4
2017-Dec-07 23:44N 43°06' E 007°01'416.6
2017-Dec-07 23:30N 43°08' E 007°05'816.2
2017-Dec-07 23:00N 43°12' E 007°15'916.5
2017-Dec-07 22:29N 43°17' E 007°25'817.0
2017-Dec-07 22:00N 43°22' E 007°34'3516.8
2017-Dec-07 19:57N 43°41' E 008°13'715.8
2017-Dec-07 19:30N 43°46' E 008°21'816.5
2017-Dec-07 19:00N 43°52' E 008°28'816.3
2017-Dec-07 18:30N 43°58' E 008°35'815.9
2017-Dec-07 18:01N 44°05' E 008°42'815.8
2017-Dec-07 17:31N 44°11' E 008°49'815.8
2017-Dec-07 17:00N 44°17' E 008°55'713.2
2017-Dec-07 16:31N 44°24' E 008°56'1 2.4
2017-Dec-07 16:00N 44°25' E 008°55'0 0.0
2017-Dec-07 15:30N 44°25' E 008°55'0 0.0
2017-Dec-07 15:00N 44°25' E 008°55'0 0.0
2017-Dec-07 14:29N 44°25' E 008°55'0 0.0
2017-Dec-07 13:59N 44°25' E 008°55'0 0.0
2017-Dec-07 13:29N 44°25' E 008°55'0 0.0
2017-Dec-07 12:59N 44°25' E 008°55'0 0.0
2017-Dec-07 12:29N 44°25' E 008°55'0 0.0
2017-Dec-07 11:58N 44°25' E 008°55'0 0.0
2017-Dec-07 11:28N 44°25' E 008°55'0 0.0
2017-Dec-07 10:58N 44°25' E 008°55'0 0.0
2017-Dec-07 10:22N 44°25' E 008°55'0 0.0
2017-Dec-07 10:00N 44°25' E 008°55'0 0.0
2017-Dec-07 09:30N 44°25' E 008°55'0 0.0
2017-Dec-07 08:57N 44°25' E 008°55'0 0.0
2017-Dec-07 08:27N 44°25' E 008°55'0 0.0
2017-Dec-07 08:00N 44°25' E 008°55'0 0.0
2017-Dec-07 07:29N 44°25' E 008°55'0 0.0
2017-Dec-07 06:59N 44°25' E 008°55'0 0.5
2017-Dec-07 06:30N 44°24' E 008°55'2 4.2
2017-Dec-07 06:00N 44°23' E 008°57'815.6
2017-Dec-07 05:30N 44°16' E 009°02'918.0
2017-Dec-07 05:01N 44°08' E 009°08'917.9
2017-Dec-07 04:31N 44°01' E 009°15'917.8
2017-Dec-07 04:01N 43°53' E 009°21'917.7
2017-Dec-07 03:31N 43°45' E 009°27'917.7
2017-Dec-07 03:01N 43°38' E 009°33'917.7
2017-Dec-07 02:31N 43°30' E 009°40'917.5
2017-Dec-07 02:01N 43°23' E 009°46'917.4
2017-Dec-07 01:31N 43°15' E 009°52'917.2
2017-Dec-07 01:01N 43°07' E 009°57'917.3
2017-Dec-07 00:31N 42°59' E 010°00'2016.5
2017-Dec-06 23:16N 42°39' E 010°09'517.7
2017-Dec-06 22:58N 42°36' E 010°14'1117.8
2017-Dec-06 22:20N 42°29' E 010°26'718.0
2017-Dec-06 21:56N 42°25' E 010°34'  
2017-Dec-04 06:02N 36°03' W 005°13'222.3
2017-Dec-04 05:56N 36°02' W 005°15'922.1
2017-Dec-04 05:30N 35°59' W 005°26'  
2017-Dec-01 20:23N 28°59' W 015°21'615.4
2017-Dec-01 20:00N 28°56' W 015°26'815.4
2017-Dec-01 19:30N 28°51' W 015°33'815.7
2017-Dec-01 19:00N 28°46' W 015°40'815.8
2017-Dec-01 18:30N 28°41' W 015°47'815.8
2017-Dec-01 18:00N 28°37' W 015°54'815.4
2017-Dec-01 17:30N 28°32' W 016°01'815.0
2017-Dec-01 17:00N 28°28' W 016°09'510.0
2017-Dec-01 16:29N 28°29' W 016°14'0 0.0
2017-Dec-01 09:13N 28°29' W 016°15'1 1.9
2017-Dec-01 08:55N 28°29' W 016°14'1 3.3
2017-Dec-01 08:29N 28°28' W 016°13'2 4.4
2017-Dec-01 08:00N 28°28' W 016°10'510.4
2017-Dec-01 07:30N 28°32' W 016°06'1016.2
2017-Dec-01 06:54N 28°41' W 016°06'616.3
2017-Dec-01 06:30N 28°48' W 016°07'  

Dump ship's entire track history